sensor_id;sensor_type;location;lat;lon;timestamp;P1;durP1;ratioP1;P2;durP2;ratioP2
22675;SDS011;12521;43.310;21.876;2023-03-01T00:03:12;38.0;;;31.0;;
22675;SDS011;12521;43.310;21.876;2023-03-01T00:07:52;38.0;;;31.0;;
22675;SDS011;12521;43.310;21.876;2023-03-01T00:12:31;40.0;;;30.0;;
22675;SDS011;12521;43.310;21.876;2023-03-01T00:17:08;40.0;;;30.0;;
22675;SDS011;12521;43.310;21.876;2023-03-01T00:21:46;42.0;;;30.0;;
22675;SDS011;12521;43.310;21.876;2023-03-01T00:26:25;42.0;;;30.0;;
22675;SDS011;12521;43.310;21.876;2023-03-01T00:31:05;40.0;;;30.0;;
22675;SDS011;12521;43.310;21.876;2023-03-01T00:35:49;40.0;;;30.0;;
22675;SDS011;12521;43.310;21.876;2023-03-01T00:40:28;40.0;;;30.0;;
22675;SDS011;12521;43.310;21.876;2023-03-01T00:45:10;38.0;;;29.0;;
22675;SDS011;12521;43.310;21.876;2023-03-01T00:49:48;38.0;;;29.0;;
22675;SDS011;12521;43.310;21.876;2023-03-01T00:54:24;34.0;;;26.0;;
22675;SDS011;12521;43.310;21.876;2023-03-01T00:59:02;34.0;;;26.0;;
22675;SDS011;12521;43.310;21.876;2023-03-01T01:03:38;30.0;;;23.0;;
22675;SDS011;12521;43.310;21.876;2023-03-01T01:08:15;30.0;;;23.0;;
22675;SDS011;12521;43.310;21.876;2023-03-01T01:12:52;36.0;;;22.0;;
22675;SDS011;12521;43.310;21.876;2023-03-01T01:17:29;36.0;;;22.0;;
22675;SDS011;12521;43.310;21.876;2023-03-01T01:22:06;42.0;;;22.0;;
22675;SDS011;12521;43.310;21.876;2023-03-01T01:26:45;42.0;;;22.0;;
22675;SDS011;12521;43.310;21.876;2023-03-01T01:31:25;34.0;;;21.0;;
22675;SDS011;12521;43.310;21.876;2023-03-01T01:36:06;34.0;;;21.0;;
22675;SDS011;12521;43.310;21.876;2023-03-01T01:40:45;34.0;;;21.0;;
22675;SDS011;12521;43.310;21.876;2023-03-01T01:45:32;26.0;;;20.0;;
22675;SDS011;12521;43.310;21.876;2023-03-01T01:50:19;26.0;;;20.0;;
22675;SDS011;12521;43.310;21.876;2023-03-01T01:55:07;28.0;;;21.0;;
22675;SDS011;12521;43.310;21.876;2023-03-01T02:00:00;28.0;;;21.0;;
22675;SDS011;12521;43.310;21.876;2023-03-01T02:04:53;29.0;;;22.0;;
22675;SDS011;12521;43.310;21.876;2023-03-01T02:09:52;29.0;;;22.0;;
22675;SDS011;12521;43.310;21.876;2023-03-01T02:14:29;27.0;;;22.0;;
22675;SDS011;12521;43.310;21.876;2023-03-01T02:19:23;27.0;;;22.0;;
22675;SDS011;12521;43.310;21.876;2023-03-01T02:24:54;25.0;;;21.0;;
22675;SDS011;12521;43.310;21.876;2023-03-01T02:29:58;25.0;;;21.0;;
22675;SDS011;12521;43.310;21.876;2023-03-01T02:34:35;24.0;;;20.0;;
22675;SDS011;12521;43.310;21.876;2023-03-01T02:39:19;24.0;;;20.0;;
22675;SDS011;12521;43.310;21.876;2023-03-01T02:44:05;24.0;;;19.0;;
22675;SDS011;12521;43.310;21.876;2023-03-01T02:48:48;24.0;;;19.0;;
22675;SDS011;12521;43.310;21.876;2023-03-01T02:53:49;24.0;;;19.0;;
22675;SDS011;12521;43.310;21.876;2023-03-01T02:58:47;24.0;;;19.0;;
22675;SDS011;12521;43.310;21.876;2023-03-01T03:03:25;25.0;;;19.0;;
22675;SDS011;12521;43.310;21.876;2023-03-01T03:08:03;25.0;;;19.0;;
22675;SDS011;12521;43.310;21.876;2023-03-01T03:12:42;25.0;;;18.0;;
22675;SDS011;12521;43.310;21.876;2023-03-01T03:17:19;25.0;;;18.0;;
22675;SDS011;12521;43.310;21.876;2023-03-01T03:21:56;25.0;;;18.0;;
22675;SDS011;12521;43.310;21.876;2023-03-01T03:26:33;25.0;;;18.0;;
22675;SDS011;12521;43.310;21.876;2023-03-01T03:31:10;24.0;;;18.0;;
22675;SDS011;12521;43.310;21.876;2023-03-01T03:35:50;24.0;;;18.0;;
22675;SDS011;12521;43.310;21.876;2023-03-01T03:40:33;24.0;;;18.0;;
22675;SDS011;12521;43.310;21.876;2023-03-01T03:45:18;23.0;;;19.0;;
22675;SDS011;12521;43.310;21.876;2023-03-01T03:49:55;23.0;;;19.0;;
22675;SDS011;12521;43.310;21.876;2023-03-01T03:54:32;21.0;;;18.0;;
22675;SDS011;12521;43.310;21.876;2023-03-01T03:59:09;21.0;;;18.0;;
22675;SDS011;12521;43.310;21.876;2023-03-01T04:03:45;19.0;;;16.0;;
22675;SDS011;12521;43.310;21.876;2023-03-01T04:08:23;19.0;;;16.0;;
22675;SDS011;12521;43.310;21.876;2023-03-01T04:13:01;19.0;;;15.0;;
22675;SDS011;12521;43.310;21.876;2023-03-01T04:17:39;19.0;;;15.0;;
22675;SDS011;12521;43.310;21.876;2023-03-01T04:22:16;19.0;;;14.0;;
22675;SDS011;12521;43.310;21.876;2023-03-01T04:26:52;19.0;;;14.0;;
22675;SDS011;12521;43.310;21.876;2023-03-01T04:31:28;16.0;;;13.0;;
22675;SDS011;12521;43.310;21.876;2023-03-01T04:36:07;16.0;;;13.0;;
22675;SDS011;12521;43.310;21.876;2023-03-01T04:40:47;16.0;;;13.0;;
22675;SDS011;12521;43.310;21.876;2023-03-01T04:45:24;14.0;;;12.0;;
22675;SDS011;12521;43.310;21.876;2023-03-01T04:50:01;14.0;;;12.0;;
22675;SDS011;12521;43.310;21.876;2023-03-01T04:54:38;15.0;;;12.0;;
22675;SDS011;12521;43.310;21.876;2023-03-01T04:59:14;15.0;;;12.0;;
22675;SDS011;12521;43.310;21.876;2023-03-01T05:03:52;16.0;;;11.0;;
22675;SDS011;12521;43.310;21.876;2023-03-01T05:08:28;16.0;;;11.0;;
22675;SDS011;12521;43.310;21.876;2023-03-01T05:13:05;14.0;;;10.0;;
22675;SDS011;12521;43.310;21.876;2023-03-01T05:17:41;14.0;;;10.0;;
22675;SDS011;12521;43.310;21.876;2023-03-01T05:22:18;13.0;;;10.0;;
22675;SDS011;12521;43.310;21.876;2023-03-01T05:26:54;13.0;;;10.0;;
22675;SDS011;12521;43.310;21.876;2023-03-01T05:31:31;13.0;;;10.0;;
22675;SDS011;12521;43.310;21.876;2023-03-01T05:36:10;13.0;;;10.0;;
22675;SDS011;12521;43.310;21.876;2023-03-01T05:40:48;13.0;;;10.0;;
22675;SDS011;12521;43.310;21.876;2023-03-01T05:45:27;13.0;;;9.0;;
22675;SDS011;12521;43.310;21.876;2023-03-01T05:50:05;13.0;;;9.0;;
22675;SDS011;12521;43.310;21.876;2023-03-01T05:54:42;15.0;;;11.0;;
22675;SDS011;12521;43.310;21.876;2023-03-01T05:59:18;15.0;;;11.0;;
22675;SDS011;12521;43.310;21.876;2023-03-01T06:03:56;17.0;;;13.0;;
22675;SDS011;12521;43.310;21.876;2023-03-01T06:08:33;17.0;;;13.0;;
22675;SDS011;12521;43.310;21.876;2023-03-01T06:13:09;17.0;;;14.0;;
22675;SDS011;12521;43.310;21.876;2023-03-01T06:17:47;17.0;;;14.0;;
22675;SDS011;12521;43.310;21.876;2023-03-01T06:22:25;17.0;;;15.0;;
22675;SDS011;12521;43.310;21.876;2023-03-01T06:27:03;17.0;;;15.0;;
22675;SDS011;12521;43.310;21.876;2023-03-01T06:31:40;18.0;;;15.0;;
22675;SDS011;12521;43.310;21.876;2023-03-01T06:36:17;18.0;;;15.0;;
22675;SDS011;12521;43.310;21.876;2023-03-01T06:40:55;18.0;;;15.0;;
22675;SDS011;12521;43.310;21.876;2023-03-01T06:45:32;18.0;;;15.0;;
22675;SDS011;12521;43.310;21.876;2023-03-01T06:50:12;18.0;;;15.0;;
22675;SDS011;12521;43.310;21.876;2023-03-01T06:54:49;16.0;;;14.0;;
22675;SDS011;12521;43.310;21.876;2023-03-01T06:59:26;16.0;;;14.0;;
22675;SDS011;12521;43.310;21.876;2023-03-01T07:04:03;15.0;;;13.0;;
22675;SDS011;12521;43.310;21.876;2023-03-01T07:08:39;15.0;;;13.0;;
22675;SDS011;12521;43.310;21.876;2023-03-01T07:13:16;16.0;;;12.0;;
22675;SDS011;12521;43.310;21.876;2023-03-01T07:17:52;16.0;;;12.0;;
22675;SDS011;12521;43.310;21.876;2023-03-01T07:22:29;16.0;;;12.0;;
22675;SDS011;12521;43.310;21.876;2023-03-01T07:27:05;16.0;;;12.0;;
22675;SDS011;12521;43.310;21.876;2023-03-01T07:31:41;16.0;;;13.0;;
22675;SDS011;12521;43.310;21.876;2023-03-01T07:36:18;16.0;;;13.0;;
22675;SDS011;12521;43.310;21.876;2023-03-01T07:41:00;16.0;;;13.0;;
22675;SDS011;12521;43.310;21.876;2023-03-01T07:45:39;15.0;;;14.0;;
22675;SDS011;12521;43.310;21.876;2023-03-01T07:50:16;15.0;;;14.0;;
22675;SDS011;12521;43.310;21.876;2023-03-01T07:54:53;19.0;;;15.0;;
22675;SDS011;12521;43.310;21.876;2023-03-01T07:59:29;19.0;;;15.0;;
22675;SDS011;12521;43.310;21.876;2023-03-01T08:04:08;23.0;;;16.0;;
22675;SDS011;12521;43.310;21.876;2023-03-01T08:08:45;23.0;;;16.0;;
22675;SDS011;12521;43.310;21.876;2023-03-01T08:13:23;22.0;;;16.0;;
22675;SDS011;12521;43.310;21.876;2023-03-01T08:18:00;22.0;;;16.0;;
22675;SDS011;12521;43.310;21.876;2023-03-01T08:22:36;22.0;;;17.0;;
22675;SDS011;12521;43.310;21.876;2023-03-01T08:27:15;22.0;;;17.0;;
22675;SDS011;12521;43.310;21.876;2023-03-01T08:31:53;20.0;;;16.0;;
22675;SDS011;12521;43.310;21.876;2023-03-01T08:36:35;20.0;;;16.0;;
22675;SDS011;12521;43.310;21.876;2023-03-01T08:41:18;17.0;;;14.0;;
22675;SDS011;12521;43.310;21.876;2023-03-01T08:45:55;17.0;;;14.0;;
22675;SDS011;12521;43.310;21.876;2023-03-01T08:50:32;17.0;;;14.0;;
22675;SDS011;12521;43.310;21.876;2023-03-01T08:55:09;23.0;;;17.0;;
22675;SDS011;12521;43.310;21.876;2023-03-01T08:59:46;23.0;;;17.0;;
22675;SDS011;12521;43.310;21.876;2023-03-01T09:04:23;29.0;;;20.0;;
22675;SDS011;12521;43.310;21.876;2023-03-01T09:09:04;29.0;;;20.0;;
22675;SDS011;12521;43.310;21.876;2023-03-01T09:13:52;24.0;;;16.0;;
22675;SDS011;12521;43.310;21.876;2023-03-01T09:18:29;24.0;;;16.0;;
22675;SDS011;12521;43.310;21.876;2023-03-01T09:23:07;19.0;;;13.0;;
22675;SDS011;12521;43.310;21.876;2023-03-01T09:27:44;19.0;;;13.0;;
22675;SDS011;12521;43.310;21.876;2023-03-01T09:32:20;16.0;;;11.0;;
22675;SDS011;12521;43.310;21.876;2023-03-01T09:36:58;16.0;;;11.0;;
22675;SDS011;12521;43.310;21.876;2023-03-01T09:41:50;12.0;;;9.0;;
22675;SDS011;12521;43.310;21.876;2023-03-01T09:46:43;12.0;;;9.0;;
22675;SDS011;12521;43.310;21.876;2023-03-01T09:51:33;11.0;;;8.0;;
22675;SDS011;12521;43.310;21.876;2023-03-01T09:56:27;11.0;;;8.0;;
22675;SDS011;12521;43.310;21.876;2023-03-01T10:01:33;10.0;;;7.0;;
22675;SDS011;12521;43.310;21.876;2023-03-01T10:06:22;10.0;;;7.0;;
22675;SDS011;12521;43.310;21.876;2023-03-01T10:11:00;10.0;;;7.0;;
22675;SDS011;12521;43.310;21.876;2023-03-01T10:15:47;12.0;;;10.0;;
22675;SDS011;12521;43.310;21.876;2023-03-01T10:20:44;12.0;;;10.0;;
22675;SDS011;12521;43.310;21.876;2023-03-01T10:26:00;14.0;;;12.0;;
22675;SDS011;12521;43.310;21.876;2023-03-01T10:30:45;14.0;;;12.0;;
22675;SDS011;12521;43.310;21.876;2023-03-01T10:35:27;12.0;;;11.0;;
22675;SDS011;12521;43.310;21.876;2023-03-01T10:40:10;12.0;;;11.0;;
22675;SDS011;12521;43.310;21.876;2023-03-01T10:44:49;10.0;;;10.0;;
22675;SDS011;12521;43.310;21.876;2023-03-01T10:49:25;10.0;;;10.0;;
22675;SDS011;12521;43.310;21.876;2023-03-01T10:54:04;11.0;;;10.0;;
22675;SDS011;12521;43.310;21.876;2023-03-01T10:59:02;11.0;;;10.0;;
22675;SDS011;12521;43.310;21.876;2023-03-01T11:03:39;12.0;;;9.0;;
22675;SDS011;12521;43.310;21.876;2023-03-01T11:08:39;12.0;;;9.0;;
22675;SDS011;12521;43.310;21.876;2023-03-01T11:13:21;14.0;;;10.0;;
22675;SDS011;12521;43.310;21.876;2023-03-01T11:17:58;14.0;;;10.0;;
22675;SDS011;12521;43.310;21.876;2023-03-01T11:22:35;16.0;;;12.0;;
22675;SDS011;12521;43.310;21.876;2023-03-01T11:27:25;16.0;;;12.0;;
22675;SDS011;12521;43.310;21.876;2023-03-01T11:32:23;14.0;;;10.0;;
22675;SDS011;12521;43.310;21.876;2023-03-01T11:37:38;14.0;;;10.0;;
22675;SDS011;12521;43.310;21.876;2023-03-01T11:43:13;13.0;;;9.0;;
22675;SDS011;12521;43.310;21.876;2023-03-01T11:48:53;13.0;;;9.0;;
22675;SDS011;12521;43.310;21.876;2023-03-01T11:54:35;14.0;;;10.0;;
22675;SDS011;12521;43.310;21.876;2023-03-01T12:00:13;14.0;;;10.0;;
22675;SDS011;12521;43.310;21.876;2023-03-01T12:06:56;15.0;;;11.0;;
22675;SDS011;12521;43.310;21.876;2023-03-01T12:12:07;16.0;;;12.0;;
22675;SDS011;12521;43.310;21.876;2023-03-01T12:17:25;16.0;;;12.0;;
22675;SDS011;12521;43.310;21.876;2023-03-01T12:22:31;18.0;;;14.0;;
22675;SDS011;12521;43.310;21.876;2023-03-01T12:28:04;18.0;;;14.0;;
22675;SDS011;12521;43.310;21.876;2023-03-01T12:33:55;46.0;;;38.0;;
22675;SDS011;12521;43.310;21.876;2023-03-01T12:39:27;46.0;;;38.0;;
22675;SDS011;12521;43.310;21.876;2023-03-01T12:45:24;73.0;;;62.0;;
22675;SDS011;12521;43.310;21.876;2023-03-01T12:50:42;73.0;;;62.0;;
22675;SDS011;12521;43.310;21.876;2023-03-01T12:55:38;60.0;;;48.0;;
22675;SDS011;12521;43.310;21.876;2023-03-01T13:00:36;60.0;;;48.0;;
22675;SDS011;12521;43.310;21.876;2023-03-01T13:05:50;47.0;;;34.0;;
22675;SDS011;12521;43.310;21.876;2023-03-01T13:11:02;47.0;;;34.0;;
22675;SDS011;12521;43.310;21.876;2023-03-01T13:16:41;98.0;;;64.0;;
22675;SDS011;12521;43.310;21.876;2023-03-01T13:21:31;149.0;;;93.0;;
22675;SDS011;12521;43.310;21.876;2023-03-01T13:26:16;149.0;;;93.0;;
22675;SDS011;12521;43.310;21.876;2023-03-01T13:30:54;149.0;;;93.0;;
22675;SDS011;12521;43.310;21.876;2023-03-01T13:35:45;98.0;;;64.0;;
22675;SDS011;12521;43.310;21.876;2023-03-01T13:42:43;47.0;;;36.0;;
22675;SDS011;12521;43.310;21.876;2023-03-01T13:47:24;47.0;;;36.0;;
22675;SDS011;12521;43.310;21.876;2023-03-01T13:52:06;42.0;;;34.0;;
22675;SDS011;12521;43.310;21.876;2023-03-01T13:57:34;42.0;;;34.0;;
22675;SDS011;12521;43.310;21.876;2023-03-01T14:02:16;38.0;;;32.0;;
22675;SDS011;12521;43.310;21.876;2023-03-01T14:07:11;38.0;;;32.0;;
22675;SDS011;12521;43.310;21.876;2023-03-01T14:12:26;34.0;;;28.0;;
22675;SDS011;12521;43.310;21.876;2023-03-01T14:17:53;34.0;;;28.0;;
22675;SDS011;12521;43.310;21.876;2023-03-01T14:22:43;29.0;;;23.0;;
22675;SDS011;12521;43.310;21.876;2023-03-01T14:27:35;29.0;;;23.0;;
22675;SDS011;12521;43.310;21.876;2023-03-01T14:32:27;31.0;;;26.0;;
22675;SDS011;12521;43.310;21.876;2023-03-01T14:37:21;31.0;;;26.0;;
22675;SDS011;12521;43.310;21.876;2023-03-01T14:42:06;33.0;;;30.0;;
22675;SDS011;12521;43.310;21.876;2023-03-01T14:46:46;33.0;;;30.0;;
22675;SDS011;12521;43.310;21.876;2023-03-01T14:51:27;33.0;;;30.0;;
22675;SDS011;12521;43.310;21.876;2023-03-01T14:56:11;35.0;;;30.0;;
22675;SDS011;12521;43.310;21.876;2023-03-01T15:00:57;35.0;;;30.0;;
22675;SDS011;12521;43.310;21.876;2023-03-01T15:05:37;37.0;;;29.0;;
22675;SDS011;12521;43.310;21.876;2023-03-01T15:10:25;37.0;;;29.0;;
22675;SDS011;12521;43.310;21.876;2023-03-01T15:15:34;48.0;;;36.0;;
22675;SDS011;12521;43.310;21.876;2023-03-01T15:20:20;48.0;;;36.0;;
22675;SDS011;12521;43.310;21.876;2023-03-01T15:25:01;59.0;;;43.0;;
22675;SDS011;12521;43.310;21.876;2023-03-01T15:29:38;59.0;;;43.0;;
22675;SDS011;12521;43.310;21.876;2023-03-01T15:34:27;58.0;;;44.0;;
22675;SDS011;12521;43.310;21.876;2023-03-01T15:39:37;58.0;;;44.0;;
22675;SDS011;12521;43.310;21.876;2023-03-01T15:44:30;56.0;;;46.0;;
22675;SDS011;12521;43.310;21.876;2023-03-01T15:49:38;56.0;;;46.0;;
22675;SDS011;12521;43.310;21.876;2023-03-01T15:54:25;48.0;;;40.0;;
22675;SDS011;12521;43.310;21.876;2023-03-01T15:59:04;48.0;;;40.0;;
22675;SDS011;12521;43.310;21.876;2023-03-01T16:03:41;41.0;;;35.0;;
22675;SDS011;12521;43.310;21.876;2023-03-01T16:08:18;41.0;;;35.0;;
22675;SDS011;12521;43.310;21.876;2023-03-01T16:12:55;38.0;;;32.0;;
22675;SDS011;12521;43.310;21.876;2023-03-01T16:17:31;38.0;;;32.0;;
22675;SDS011;12521;43.310;21.876;2023-03-01T16:22:10;35.0;;;28.0;;
22675;SDS011;12521;43.310;21.876;2023-03-01T16:26:47;35.0;;;28.0;;
22675;SDS011;12521;43.310;21.876;2023-03-01T16:31:24;35.0;;;28.0;;
22675;SDS011;12521;43.310;21.876;2023-03-01T16:36:10;36.0;;;28.0;;
22675;SDS011;12521;43.310;21.876;2023-03-01T16:40:52;36.0;;;28.0;;
22675;SDS011;12521;43.310;21.876;2023-03-01T16:45:35;37.0;;;29.0;;
22675;SDS011;12521;43.310;21.876;2023-03-01T16:50:12;37.0;;;29.0;;
22675;SDS011;12521;43.310;21.876;2023-03-01T16:54:49;38.0;;;30.0;;
22675;SDS011;12521;43.310;21.876;2023-03-01T16:59:26;38.0;;;30.0;;
22675;SDS011;12521;43.310;21.876;2023-03-01T17:04:04;40.0;;;31.0;;
22675;SDS011;12521;43.310;21.876;2023-03-01T17:08:42;40.0;;;31.0;;
22675;SDS011;12521;43.310;21.876;2023-03-01T17:13:19;46.0;;;34.0;;
22675;SDS011;12521;43.310;21.876;2023-03-01T17:17:56;46.0;;;34.0;;
22675;SDS011;12521;43.310;21.876;2023-03-01T17:22:32;52.0;;;37.0;;
22675;SDS011;12521;43.310;21.876;2023-03-01T17:27:12;52.0;;;37.0;;
22675;SDS011;12521;43.310;21.876;2023-03-01T17:31:49;48.0;;;34.0;;
22675;SDS011;12521;43.310;21.876;2023-03-01T17:36:26;48.0;;;34.0;;
22675;SDS011;12521;43.310;21.876;2023-03-01T17:41:04;48.0;;;34.0;;
22675;SDS011;12521;43.310;21.876;2023-03-01T17:45:42;43.0;;;31.0;;
22675;SDS011;12521;43.310;21.876;2023-03-01T17:50:20;43.0;;;31.0;;
22675;SDS011;12521;43.310;21.876;2023-03-01T17:54:56;46.0;;;36.0;;
22675;SDS011;12521;43.310;21.876;2023-03-01T17:59:36;46.0;;;36.0;;
22675;SDS011;12521;43.310;21.876;2023-03-01T18:04:13;48.0;;;42.0;;
22675;SDS011;12521;43.310;21.876;2023-03-01T18:08:51;48.0;;;42.0;;
22675;SDS011;12521;43.310;21.876;2023-03-01T18:13:29;52.0;;;41.0;;
22675;SDS011;12521;43.310;21.876;2023-03-01T18:18:05;52.0;;;41.0;;
22675;SDS011;12521;43.310;21.876;2023-03-01T18:22:42;55.0;;;40.0;;
22675;SDS011;12521;43.310;21.876;2023-03-01T18:27:18;55.0;;;40.0;;
22675;SDS011;12521;43.310;21.876;2023-03-01T18:31:56;56.0;;;42.0;;
22675;SDS011;12521;43.310;21.876;2023-03-01T18:36:34;56.0;;;42.0;;
22675;SDS011;12521;43.310;21.876;2023-03-01T18:41:11;56.0;;;42.0;;
22675;SDS011;12521;43.310;21.876;2023-03-01T18:45:48;57.0;;;44.0;;
22675;SDS011;12521;43.310;21.876;2023-03-01T18:50:31;57.0;;;44.0;;
22675;SDS011;12521;43.310;21.876;2023-03-01T18:55:09;54.0;;;42.0;;
22675;SDS011;12521;43.310;21.876;2023-03-01T18:59:46;54.0;;;42.0;;
22675;SDS011;12521;43.310;21.876;2023-03-01T19:04:22;52.0;;;39.0;;
22675;SDS011;12521;43.310;21.876;2023-03-01T19:08:59;52.0;;;39.0;;
22675;SDS011;12521;43.310;21.876;2023-03-01T19:13:39;52.0;;;40.0;;
22675;SDS011;12521;43.310;21.876;2023-03-01T19:18:17;52.0;;;40.0;;
22675;SDS011;12521;43.310;21.876;2023-03-01T19:22:53;53.0;;;42.0;;
22675;SDS011;12521;43.310;21.876;2023-03-01T19:27:30;53.0;;;42.0;;
22675;SDS011;12521;43.310;21.876;2023-03-01T19:32:07;54.0;;;42.0;;
22675;SDS011;12521;43.310;21.876;2023-03-01T19:36:44;54.0;;;42.0;;
22675;SDS011;12521;43.310;21.876;2023-03-01T19:41:21;54.0;;;42.0;;
22675;SDS011;12521;43.310;21.876;2023-03-01T19:45:58;54.0;;;41.0;;
22675;SDS011;12521;43.310;21.876;2023-03-01T19:50:37;54.0;;;41.0;;
22675;SDS011;12521;43.310;21.876;2023-03-01T19:55:13;64.0;;;50.0;;
22675;SDS011;12521;43.310;21.876;2023-03-01T19:59:50;64.0;;;50.0;;
22675;SDS011;12521;43.310;21.876;2023-03-01T20:04:27;75.0;;;59.0;;
22675;SDS011;12521;43.310;21.876;2023-03-01T20:09:07;75.0;;;59.0;;
22675;SDS011;12521;43.310;21.876;2023-03-01T20:13:45;72.0;;;56.0;;
22675;SDS011;12521;43.310;21.876;2023-03-01T20:18:22;72.0;;;56.0;;
22675;SDS011;12521;43.310;21.876;2023-03-01T20:22:58;68.0;;;52.0;;
22675;SDS011;12521;43.310;21.876;2023-03-01T20:27:35;68.0;;;52.0;;
22675;SDS011;12521;43.310;21.876;2023-03-01T20:32:11;68.0;;;52.0;;
22675;SDS011;12521;43.310;21.876;2023-03-01T20:36:48;68.0;;;52.0;;
22675;SDS011;12521;43.310;21.876;2023-03-01T20:41:25;68.0;;;52.0;;
22675;SDS011;12521;43.310;21.876;2023-03-01T20:46:04;68.0;;;51.0;;
22675;SDS011;12521;43.310;21.876;2023-03-01T20:50:44;68.0;;;51.0;;
22675;SDS011;12521;43.310;21.876;2023-03-01T20:55:21;66.0;;;50.0;;
22675;SDS011;12521;43.310;21.876;2023-03-01T20:59:57;66.0;;;50.0;;
22675;SDS011;12521;43.310;21.876;2023-03-01T21:04:34;65.0;;;50.0;;
22675;SDS011;12521;43.310;21.876;2023-03-01T21:09:11;65.0;;;50.0;;
22675;SDS011;12521;43.310;21.876;2023-03-01T21:13:48;56.0;;;48.0;;
22675;SDS011;12521;43.310;21.876;2023-03-01T21:18:27;56.0;;;48.0;;
22675;SDS011;12521;43.310;21.876;2023-03-01T21:23:07;48.0;;;45.0;;
22675;SDS011;12521;43.310;21.876;2023-03-01T21:27:43;48.0;;;45.0;;
22675;SDS011;12521;43.310;21.876;2023-03-01T21:32:19;47.0;;;41.0;;
22675;SDS011;12521;43.310;21.876;2023-03-01T21:36:56;47.0;;;41.0;;
22675;SDS011;12521;43.310;21.876;2023-03-01T21:41:36;47.0;;;41.0;;
22675;SDS011;12521;43.310;21.876;2023-03-01T21:46:18;46.0;;;37.0;;
22675;SDS011;12521;43.310;21.876;2023-03-01T21:51:02;46.0;;;37.0;;
22675;SDS011;12521;43.310;21.876;2023-03-01T21:55:47;50.0;;;40.0;;
22675;SDS011;12521;43.310;21.876;2023-03-01T22:00:25;50.0;;;40.0;;
22675;SDS011;12521;43.310;21.876;2023-03-01T22:05:02;55.0;;;44.0;;
22675;SDS011;12521;43.310;21.876;2023-03-01T22:09:40;55.0;;;44.0;;
22675;SDS011;12521;43.310;21.876;2023-03-01T22:14:19;55.0;;;42.0;;
22675;SDS011;12521;43.310;21.876;2023-03-01T22:18:58;55.0;;;42.0;;
22675;SDS011;12521;43.310;21.876;2023-03-01T22:23:39;55.0;;;41.0;;
22675;SDS011;12521;43.310;21.876;2023-03-01T22:28:18;55.0;;;41.0;;
22675;SDS011;12521;43.310;21.876;2023-03-01T22:32:54;52.0;;;40.0;;
22675;SDS011;12521;43.310;21.876;2023-03-01T22:37:31;52.0;;;40.0;;
22675;SDS011;12521;43.310;21.876;2023-03-01T22:42:07;50.0;;;40.0;;
22675;SDS011;12521;43.310;21.876;2023-03-01T22:46:45;50.0;;;40.0;;
22675;SDS011;12521;43.310;21.876;2023-03-01T22:51:30;50.0;;;40.0;;
22675;SDS011;12521;43.310;21.876;2023-03-01T22:56:16;50.0;;;37.0;;
22675;SDS011;12521;43.310;21.876;2023-03-01T23:00:57;50.0;;;37.0;;
22675;SDS011;12521;43.310;21.876;2023-03-01T23:05:34;51.0;;;34.0;;
22675;SDS011;12521;43.310;21.876;2023-03-01T23:10:10;51.0;;;34.0;;
22675;SDS011;12521;43.310;21.876;2023-03-01T23:14:49;44.0;;;30.0;;
22675;SDS011;12521;43.310;21.876;2023-03-01T23:19:26;44.0;;;30.0;;
22675;SDS011;12521;43.310;21.876;2023-03-01T23:24:06;36.0;;;27.0;;
22675;SDS011;12521;43.310;21.876;2023-03-01T23:28:44;36.0;;;27.0;;
22675;SDS011;12521;43.310;21.876;2023-03-01T23:33:21;27.0;;;20.0;;
22675;SDS011;12521;43.310;21.876;2023-03-01T23:37:58;27.0;;;20.0;;
22675;SDS011;12521;43.310;21.876;2023-03-01T23:42:35;18.0;;;13.0;;
22675;SDS011;12521;43.310;21.876;2023-03-01T23:47:11;18.0;;;13.0;;
22675;SDS011;12521;43.310;21.876;2023-03-01T23:51:49;18.0;;;13.0;;
22675;SDS011;12521;43.310;21.876;2023-03-01T23:56:32;22.0;;;15.0;;
